sensor_id;sensor_type;location;lat;lon;timestamp;P1;durP1;ratioP1;P2;durP2;ratioP2
13785;SDS011;47474;48.824;9.384;2023-06-24T00:01:50;4.35;;;3.95;;
13785;SDS011;47474;48.824;9.384;2023-06-24T00:04:17;4.60;;;4.20;;
13785;SDS011;47474;48.824;9.384;2023-06-24T00:06:44;5.07;;;4.15;;
13785;SDS011;47474;48.824;9.384;2023-06-24T00:09:12;4.25;;;3.85;;
13785;SDS011;47474;48.824;9.384;2023-06-24T00:11:38;4.93;;;4.18;;
13785;SDS011;47474;48.824;9.384;2023-06-24T00:14:05;5.05;;;4.57;;
13785;SDS011;47474;48.824;9.384;2023-06-24T00:16:32;4.78;;;4.30;;
13785;SDS011;47474;48.824;9.384;2023-06-24T00:19:01;4.38;;;3.97;;
13785;SDS011;47474;48.824;9.384;2023-06-24T00:21:28;4.72;;;4.28;;
13785;SDS011;47474;48.824;9.384;2023-06-24T00:23:56;5.88;;;4.60;;
13785;SDS011;47474;48.824;9.384;2023-06-24T00:26:31;4.78;;;4.38;;
13785;SDS011;47474;48.824;9.384;2023-06-24T00:28:58;6.38;;;4.50;;
13785;SDS011;47474;48.824;9.384;2023-06-24T00:31:24;5.10;;;4.70;;
13785;SDS011;47474;48.824;9.384;2023-06-24T00:33:51;5.05;;;4.30;;
13785;SDS011;47474;48.824;9.384;2023-06-24T00:36:18;4.75;;;4.07;;
13785;SDS011;47474;48.824;9.384;2023-06-24T00:38:44;5.47;;;4.40;;
13785;SDS011;47474;48.824;9.384;2023-06-24T00:41:11;5.05;;;4.63;;
13785;SDS011;47474;48.824;9.384;2023-06-24T00:43:39;5.40;;;4.90;;
13785;SDS011;47474;48.824;9.384;2023-06-24T00:46:06;4.95;;;4.35;;
13785;SDS011;47474;48.824;9.384;2023-06-24T00:48:33;5.35;;;4.85;;
13785;SDS011;47474;48.824;9.384;2023-06-24T00:51:00;5.20;;;4.70;;
13785;SDS011;47474;48.824;9.384;2023-06-24T00:53:26;5.22;;;4.72;;
13785;SDS011;47474;48.824;9.384;2023-06-24T00:56:00;5.47;;;4.80;;
13785;SDS011;47474;48.824;9.384;2023-06-24T00:58:28;4.60;;;4.20;;
13785;SDS011;47474;48.824;9.384;2023-06-24T01:00:56;5.40;;;4.90;;
13785;SDS011;47474;48.824;9.384;2023-06-24T01:03:24;5.40;;;4.90;;
13785;SDS011;47474;48.824;9.384;2023-06-24T01:05:50;5.75;;;5.13;;
13785;SDS011;47474;48.824;9.384;2023-06-24T01:08:18;4.32;;;3.92;;
13785;SDS011;47474;48.824;9.384;2023-06-24T01:10:47;5.38;;;4.85;;
13785;SDS011;47474;48.824;9.384;2023-06-24T01:13:17;5.30;;;4.80;;
13785;SDS011;47474;48.824;9.384;2023-06-24T01:15:44;4.80;;;4.40;;
13785;SDS011;47474;48.824;9.384;2023-06-24T01:18:27;5.07;;;4.57;;
13785;SDS011;47474;48.824;9.384;2023-06-24T01:20:59;4.90;;;4.50;;
13785;SDS011;47474;48.824;9.384;2023-06-24T01:29:48;5.28;;;4.78;;
13785;SDS011;47474;48.824;9.384;2023-06-24T01:32:29;5.55;;;4.93;;
13785;SDS011;47474;48.824;9.384;2023-06-24T01:35:12;4.90;;;4.43;;
13785;SDS011;47474;48.824;9.384;2023-06-24T01:37:41;5.20;;;4.70;;
13785;SDS011;47474;48.824;9.384;2023-06-24T01:40:09;4.70;;;4.30;;
13785;SDS011;47474;48.824;9.384;2023-06-24T01:42:38;5.63;;;5.13;;
13785;SDS011;47474;48.824;9.384;2023-06-24T01:45:06;6.03;;;5.00;;
13785;SDS011;47474;48.824;9.384;2023-06-24T01:47:38;6.80;;;4.90;;
13785;SDS011;47474;48.824;9.384;2023-06-24T01:50:06;5.90;;;4.93;;
13785;SDS011;47474;48.824;9.384;2023-06-24T01:52:35;5.70;;;5.20;;
13785;SDS011;47474;48.824;9.384;2023-06-24T01:55:18;4.72;;;4.32;;
13785;SDS011;47474;48.824;9.384;2023-06-24T01:57:46;5.03;;;4.53;;
13785;SDS011;47474;48.824;9.384;2023-06-24T02:00:14;5.45;;;4.93;;
13785;SDS011;47474;48.824;9.384;2023-06-24T02:02:43;5.15;;;4.65;;
13785;SDS011;47474;48.824;9.384;2023-06-24T02:05:10;5.43;;;4.93;;
13785;SDS011;47474;48.824;9.384;2023-06-24T02:07:38;5.18;;;4.75;;
13785;SDS011;47474;48.824;9.384;2023-06-24T02:10:05;5.57;;;5.07;;
13785;SDS011;47474;48.824;9.384;2023-06-24T02:12:33;5.18;;;4.68;;
13785;SDS011;47474;48.824;9.384;2023-06-24T02:15:00;5.35;;;4.85;;
13785;SDS011;47474;48.824;9.384;2023-06-24T02:17:29;5.20;;;4.75;;
13785;SDS011;47474;48.824;9.384;2023-06-24T02:19:57;5.22;;;4.75;;
13785;SDS011;47474;48.824;9.384;2023-06-24T02:22:25;5.05;;;4.55;;
13785;SDS011;47474;48.824;9.384;2023-06-24T02:24:52;6.03;;;4.60;;
13785;SDS011;47474;48.824;9.384;2023-06-24T02:27:20;5.70;;;5.20;;
13785;SDS011;47474;48.824;9.384;2023-06-24T02:29:47;4.88;;;4.38;;
13785;SDS011;47474;48.824;9.384;2023-06-24T02:32:14;5.43;;;4.85;;
13785;SDS011;47474;48.824;9.384;2023-06-24T02:34:41;7.13;;;5.05;;
13785;SDS011;47474;48.824;9.384;2023-06-24T02:37:09;5.18;;;4.68;;
13785;SDS011;47474;48.824;9.384;2023-06-24T02:39:36;5.28;;;4.78;;
13785;SDS011;47474;48.824;9.384;2023-06-24T02:42:09;5.30;;;4.80;;
13785;SDS011;47474;48.824;9.384;2023-06-24T02:44:35;5.30;;;4.80;;
13785;SDS011;47474;48.824;9.384;2023-06-24T02:47:02;5.00;;;4.60;;
13785;SDS011;47474;48.824;9.384;2023-06-24T02:49:29;5.30;;;4.80;;
13785;SDS011;47474;48.824;9.384;2023-06-24T02:51:57;5.28;;;4.78;;
13785;SDS011;47474;48.824;9.384;2023-06-24T02:54:25;5.13;;;4.63;;
13785;SDS011;47474;48.824;9.384;2023-06-24T02:56:52;5.13;;;4.63;;
13785;SDS011;47474;48.824;9.384;2023-06-24T02:59:23;5.63;;;5.05;;
13785;SDS011;47474;48.824;9.384;2023-06-24T03:01:49;5.35;;;4.85;;
13785;SDS011;47474;48.824;9.384;2023-06-24T03:04:16;5.78;;;5.18;;
13785;SDS011;47474;48.824;9.384;2023-06-24T03:06:43;6.35;;;4.97;;
13785;SDS011;47474;48.824;9.384;2023-06-24T03:09:10;5.68;;;5.10;;
13785;SDS011;47474;48.824;9.384;2023-06-24T03:11:41;6.32;;;5.28;;
13785;SDS011;47474;48.824;9.384;2023-06-24T03:14:08;6.20;;;4.82;;
13785;SDS011;47474;48.824;9.384;2023-06-24T03:16:35;6.45;;;5.25;;
13785;SDS011;47474;48.824;9.384;2023-06-24T03:19:03;5.40;;;4.90;;
13785;SDS011;47474;48.824;9.384;2023-06-24T03:21:29;5.43;;;4.93;;
13785;SDS011;47474;48.824;9.384;2023-06-24T03:23:57;6.00;;;5.10;;
13785;SDS011;47474;48.824;9.384;2023-06-24T03:26:24;4.82;;;4.28;;
13785;SDS011;47474;48.824;9.384;2023-06-24T03:28:53;7.18;;;5.05;;
13785;SDS011;47474;48.824;9.384;2023-06-24T03:31:19;5.63;;;5.13;;
13785;SDS011;47474;48.824;9.384;2023-06-24T03:33:48;6.32;;;5.03;;
13785;SDS011;47474;48.824;9.384;2023-06-24T03:36:15;5.57;;;5.03;;
13785;SDS011;47474;48.824;9.384;2023-06-24T03:38:42;4.80;;;4.30;;
13785;SDS011;47474;48.824;9.384;2023-06-24T03:41:08;5.45;;;4.95;;
13785;SDS011;47474;48.824;9.384;2023-06-24T03:43:35;6.78;;;5.35;;
13785;SDS011;47474;48.824;9.384;2023-06-24T03:46:03;5.90;;;4.97;;
13785;SDS011;47474;48.824;9.384;2023-06-24T03:48:30;5.35;;;4.85;;
13785;SDS011;47474;48.824;9.384;2023-06-24T03:50:57;5.60;;;5.10;;
13785;SDS011;47474;48.824;9.384;2023-06-24T03:53:23;5.15;;;4.65;;
13785;SDS011;47474;48.824;9.384;2023-06-24T03:55:50;5.20;;;4.70;;
13785;SDS011;47474;48.824;9.384;2023-06-24T03:58:17;5.55;;;5.05;;
13785;SDS011;47474;48.824;9.384;2023-06-24T04:00:46;4.68;;;4.28;;
13785;SDS011;47474;48.824;9.384;2023-06-24T04:03:15;6.82;;;5.55;;
13785;SDS011;47474;48.824;9.384;2023-06-24T04:05:43;5.30;;;4.80;;
13785;SDS011;47474;48.824;9.384;2023-06-24T04:08:10;5.47;;;4.97;;
13785;SDS011;47474;48.824;9.384;2023-06-24T04:10:36;5.50;;;5.00;;
13785;SDS011;47474;48.824;9.384;2023-06-24T04:13:09;5.20;;;4.70;;
13785;SDS011;47474;48.824;9.384;2023-06-24T04:15:36;5.38;;;4.88;;
13785;SDS011;47474;48.824;9.384;2023-06-24T04:18:03;4.43;;;4.03;;
13785;SDS011;47474;48.824;9.384;2023-06-24T04:30:29;5.40;;;4.78;;
13785;SDS011;47474;48.824;9.384;2023-06-24T04:33:25;6.05;;;5.45;;
13785;SDS011;47474;48.824;9.384;2023-06-24T04:36:34;5.35;;;4.85;;
13785;SDS011;47474;48.824;9.384;2023-06-24T04:42:35;5.82;;;4.95;;
13785;SDS011;47474;48.824;9.384;2023-06-24T04:45:03;6.68;;;4.95;;
13785;SDS011;47474;48.824;9.384;2023-06-24T04:47:31;6.22;;;5.25;;
13785;SDS011;47474;48.824;9.384;2023-06-24T04:49:57;5.93;;;5.43;;
13785;SDS011;47474;48.824;9.384;2023-06-24T04:52:24;5.63;;;5.00;;
13785;SDS011;47474;48.824;9.384;2023-06-24T04:54:51;5.50;;;5.00;;
13785;SDS011;47474;48.824;9.384;2023-06-24T04:57:24;6.97;;;5.82;;
13785;SDS011;47474;48.824;9.384;2023-06-24T04:59:52;5.47;;;4.97;;
13785;SDS011;47474;48.824;9.384;2023-06-24T05:02:20;6.30;;;5.70;;
13785;SDS011;47474;48.824;9.384;2023-06-24T05:04:46;6.70;;;5.85;;
13785;SDS011;47474;48.824;9.384;2023-06-24T05:07:13;5.68;;;5.18;;
13785;SDS011;47474;48.824;9.384;2023-06-24T05:09:40;5.20;;;4.70;;
13785;SDS011;47474;48.824;9.384;2023-06-24T05:12:14;5.45;;;4.90;;
13785;SDS011;47474;48.824;9.384;2023-06-24T05:14:41;5.43;;;4.93;;
13785;SDS011;47474;48.824;9.384;2023-06-24T05:17:07;5.75;;;5.18;;
13785;SDS011;47474;48.824;9.384;2023-06-24T05:19:35;5.85;;;5.28;;
13785;SDS011;47474;48.824;9.384;2023-06-24T05:22:02;6.20;;;5.30;;
13785;SDS011;47474;48.824;9.384;2023-06-24T05:24:29;6.28;;;5.65;;
13785;SDS011;47474;48.824;9.384;2023-06-24T05:26:56;6.88;;;5.40;;
13785;SDS011;47474;48.824;9.384;2023-06-24T05:29:22;6.93;;;5.40;;
13785;SDS011;47474;48.824;9.384;2023-06-24T05:31:51;5.78;;;5.28;;
13785;SDS011;47474;48.824;9.384;2023-06-24T05:34:18;5.50;;;4.63;;
13785;SDS011;47474;48.824;9.384;2023-06-24T05:36:46;5.75;;;5.25;;
13785;SDS011;47474;48.824;9.384;2023-06-24T05:39:12;6.43;;;5.18;;
13785;SDS011;47474;48.824;9.384;2023-06-24T05:41:39;6.18;;;5.18;;
13785;SDS011;47474;48.824;9.384;2023-06-24T05:44:06;6.63;;;5.25;;
13785;SDS011;47474;48.824;9.384;2023-06-24T05:46:35;6.10;;;5.03;;
13785;SDS011;47474;48.824;9.384;2023-06-24T05:49:01;5.95;;;5.45;;
13785;SDS011;47474;48.824;9.384;2023-06-24T05:51:28;5.85;;;5.35;;
13785;SDS011;47474;48.824;9.384;2023-06-24T05:53:57;6.07;;;5.47;;
13785;SDS011;47474;48.824;9.384;2023-06-24T05:56:25;5.80;;;5.20;;
13785;SDS011;47474;48.824;9.384;2023-06-24T05:58:52;5.80;;;5.25;;
13785;SDS011;47474;48.824;9.384;2023-06-24T06:01:19;5.22;;;4.80;;
13785;SDS011;47474;48.824;9.384;2023-06-24T06:03:45;4.90;;;4.40;;
13785;SDS011;47474;48.824;9.384;2023-06-24T06:06:12;5.35;;;4.90;;
13785;SDS011;47474;48.824;9.384;2023-06-24T06:08:39;5.88;;;5.38;;
13785;SDS011;47474;48.824;9.384;2023-06-24T06:11:07;5.53;;;5.03;;
13785;SDS011;47474;48.824;9.384;2023-06-24T06:13:33;4.32;;;3.92;;
13785;SDS011;47474;48.824;9.384;2023-06-24T06:16:00;5.63;;;5.13;;
13785;SDS011;47474;48.824;9.384;2023-06-24T06:18:27;4.95;;;4.45;;
13785;SDS011;47474;48.824;9.384;2023-06-24T06:20:53;5.40;;;4.85;;
13785;SDS011;47474;48.824;9.384;2023-06-24T06:23:20;6.88;;;5.43;;
13785;SDS011;47474;48.824;9.384;2023-06-24T06:25:46;5.20;;;4.70;;
13785;SDS011;47474;48.824;9.384;2023-06-24T06:28:15;5.30;;;4.85;;
13785;SDS011;47474;48.824;9.384;2023-06-24T06:30:41;5.03;;;4.63;;
13785;SDS011;47474;48.824;9.384;2023-06-24T06:33:08;5.78;;;5.28;;
13785;SDS011;47474;48.824;9.384;2023-06-24T06:35:34;5.03;;;4.53;;
13785;SDS011;47474;48.824;9.384;2023-06-24T06:38:01;4.88;;;4.47;;
13785;SDS011;47474;48.824;9.384;2023-06-24T06:40:27;4.80;;;4.00;;
13785;SDS011;47474;48.824;9.384;2023-06-24T06:42:54;5.18;;;4.68;;
13785;SDS011;47474;48.824;9.384;2023-06-24T06:45:22;4.80;;;4.40;;
13785;SDS011;47474;48.824;9.384;2023-06-24T06:47:51;5.22;;;4.72;;
13785;SDS011;47474;48.824;9.384;2023-06-24T06:50:17;4.30;;;3.92;;
13785;SDS011;47474;48.824;9.384;2023-06-24T06:52:44;4.60;;;4.18;;
13785;SDS011;47474;48.824;9.384;2023-06-24T06:55:10;4.65;;;4.05;;
13785;SDS011;47474;48.824;9.384;2023-06-24T06:57:37;5.20;;;3.97;;
13785;SDS011;47474;48.824;9.384;2023-06-24T07:00:04;4.63;;;4.22;;
13785;SDS011;47474;48.824;9.384;2023-06-24T07:02:35;4.70;;;4.30;;
13785;SDS011;47474;48.824;9.384;2023-06-24T07:05:03;5.07;;;4.45;;
13785;SDS011;47474;48.824;9.384;2023-06-24T07:07:31;4.65;;;4.25;;
13785;SDS011;47474;48.824;9.384;2023-06-24T07:10:00;4.88;;;4.38;;
13785;SDS011;47474;48.824;9.384;2023-06-24T07:12:27;4.30;;;3.90;;
13785;SDS011;47474;48.824;9.384;2023-06-24T07:14:53;4.93;;;4.03;;
13785;SDS011;47474;48.824;9.384;2023-06-24T07:17:20;5.00;;;4.50;;
13785;SDS011;47474;48.824;9.384;2023-06-24T07:19:48;4.57;;;4.18;;
13785;SDS011;47474;48.824;9.384;2023-06-24T07:22:14;4.10;;;3.70;;
13785;SDS011;47474;48.824;9.384;2023-06-24T07:24:41;4.13;;;3.83;;
13785;SDS011;47474;48.824;9.384;2023-06-24T07:27:08;4.40;;;3.80;;
13785;SDS011;47474;48.824;9.384;2023-06-24T07:29:34;4.35;;;3.95;;
13785;SDS011;47474;48.824;9.384;2023-06-24T07:32:01;4.60;;;4.07;;
13785;SDS011;47474;48.824;9.384;2023-06-24T07:34:29;5.32;;;3.97;;
13785;SDS011;47474;48.824;9.384;2023-06-24T07:36:57;4.75;;;4.13;;
13785;SDS011;47474;48.824;9.384;2023-06-24T07:39:24;4.15;;;3.75;;
13785;SDS011;47474;48.824;9.384;2023-06-24T07:41:50;6.03;;;3.97;;
13785;SDS011;47474;48.824;9.384;2023-06-24T07:44:17;4.50;;;4.10;;
13785;SDS011;47474;48.824;9.384;2023-06-24T07:46:44;4.40;;;3.58;;
13785;SDS011;47474;48.824;9.384;2023-06-24T07:49:11;5.95;;;4.10;;
13785;SDS011;47474;48.824;9.384;2023-06-24T07:51:37;3.75;;;3.45;;
13785;SDS011;47474;48.824;9.384;2023-06-24T07:54:05;3.97;;;3.63;;
13785;SDS011;47474;48.824;9.384;2023-06-24T07:56:32;4.60;;;4.07;;
13785;SDS011;47474;48.824;9.384;2023-06-24T07:58:58;4.60;;;3.97;;
13785;SDS011;47474;48.824;9.384;2023-06-24T08:01:25;5.30;;;4.50;;
13785;SDS011;47474;48.824;9.384;2023-06-24T08:03:51;4.47;;;4.03;;
13785;SDS011;47474;48.824;9.384;2023-06-24T08:06:18;3.90;;;3.60;;
13785;SDS011;47474;48.824;9.384;2023-06-24T08:08:44;4.50;;;4.10;;
13785;SDS011;47474;48.824;9.384;2023-06-24T08:11:13;4.25;;;3.85;;
13785;SDS011;47474;48.824;9.384;2023-06-24T08:13:40;4.18;;;3.78;;
13785;SDS011;47474;48.824;9.384;2023-06-24T08:16:07;3.50;;;3.20;;
13785;SDS011;47474;48.824;9.384;2023-06-24T08:18:34;3.97;;;3.58;;
13785;SDS011;47474;48.824;9.384;2023-06-24T08:21:00;4.00;;;3.33;;
13785;SDS011;47474;48.824;9.384;2023-06-24T08:23:27;3.75;;;3.45;;
13785;SDS011;47474;48.824;9.384;2023-06-24T08:25:53;3.88;;;3.58;;
13785;SDS011;47474;48.824;9.384;2023-06-24T08:28:22;3.83;;;3.53;;
13785;SDS011;47474;48.824;9.384;2023-06-24T08:30:48;3.97;;;3.67;;
13785;SDS011;47474;48.824;9.384;2023-06-24T08:33:15;4.07;;;3.67;;
13785;SDS011;47474;48.824;9.384;2023-06-24T08:35:41;3.50;;;3.20;;
13785;SDS011;47474;48.824;9.384;2023-06-24T08:38:08;4.05;;;3.50;;
13785;SDS011;47474;48.824;9.384;2023-06-24T08:40:34;4.20;;;3.75;;
13785;SDS011;47474;48.824;9.384;2023-06-24T08:43:01;3.75;;;3.45;;
13785;SDS011;47474;48.824;9.384;2023-06-24T08:45:29;3.50;;;3.20;;
13785;SDS011;47474;48.824;9.384;2023-06-24T08:47:56;3.70;;;3.40;;
13785;SDS011;47474;48.824;9.384;2023-06-24T08:50:23;3.97;;;3.60;;
13785;SDS011;47474;48.824;9.384;2023-06-24T08:52:51;3.97;;;3.60;;
13785;SDS011;47474;48.824;9.384;2023-06-24T08:55:19;4.25;;;3.60;;
13785;SDS011;47474;48.824;9.384;2023-06-24T08:57:49;5.65;;;3.50;;
13785;SDS011;47474;48.824;9.384;2023-06-24T09:00:16;3.58;;;3.28;;
13785;SDS011;47474;48.824;9.384;2023-06-24T09:02:44;3.67;;;3.28;;
13785;SDS011;47474;48.824;9.384;2023-06-24T09:05:11;3.80;;;3.50;;
13785;SDS011;47474;48.824;9.384;2023-06-24T09:07:38;3.70;;;3.28;;
13785;SDS011;47474;48.824;9.384;2023-06-24T09:10:05;4.00;;;3.60;;
13785;SDS011;47474;48.824;9.384;2023-06-24T09:12:32;4.00;;;3.50;;
13785;SDS011;47474;48.824;9.384;2023-06-24T09:14:59;3.40;;;3.05;;
13785;SDS011;47474;48.824;9.384;2023-06-24T09:17:25;4.50;;;3.60;;
13785;SDS011;47474;48.824;9.384;2023-06-24T09:19:55;3.35;;;3.13;;
13785;SDS011;47474;48.824;9.384;2023-06-24T09:22:29;4.13;;;3.70;;
13785;SDS011;47474;48.824;9.384;2023-06-24T09:24:56;5.53;;;3.70;;
13785;SDS011;47474;48.824;9.384;2023-06-24T09:27:23;5.38;;;3.72;;
13785;SDS011;47474;48.824;9.384;2023-06-24T09:29:49;3.47;;;3.17;;
13785;SDS011;47474;48.824;9.384;2023-06-24T09:32:16;3.42;;;3.13;;
13785;SDS011;47474;48.824;9.384;2023-06-24T09:34:43;3.72;;;3.42;;
13785;SDS011;47474;48.824;9.384;2023-06-24T09:37:12;3.75;;;3.38;;
13785;SDS011;47474;48.824;9.384;2023-06-24T09:39:47;4.38;;;3.65;;
13785;SDS011;47474;48.824;9.384;2023-06-24T09:42:14;3.38;;;3.08;;
13785;SDS011;47474;48.824;9.384;2023-06-24T09:44:40;3.38;;;3.08;;
13785;SDS011;47474;48.824;9.384;2023-06-24T09:47:07;4.15;;;3.38;;
13785;SDS011;47474;48.824;9.384;2023-06-24T09:49:33;3.38;;;3.08;;
13785;SDS011;47474;48.824;9.384;2023-06-24T09:52:00;3.20;;;2.92;;
13785;SDS011;47474;48.824;9.384;2023-06-24T09:54:29;3.60;;;3.15;;
13785;SDS011;47474;48.824;9.384;2023-06-24T09:56:57;3.47;;;3.20;;
13785;SDS011;47474;48.824;9.384;2023-06-24T09:59:26;3.47;;;3.17;;
13785;SDS011;47474;48.824;9.384;2023-06-24T10:01:53;3.67;;;3.38;;
13785;SDS011;47474;48.824;9.384;2023-06-24T10:04:20;4.43;;;4.03;;
13785;SDS011;47474;48.824;9.384;2023-06-24T10:06:47;4.03;;;3.63;;
13785;SDS011;47474;48.824;9.384;2023-06-24T10:09:14;3.80;;;3.20;;
13785;SDS011;47474;48.824;9.384;2023-06-24T10:11:44;4.60;;;3.80;;
13785;SDS011;47474;48.824;9.384;2023-06-24T10:14:11;3.33;;;3.13;;
13785;SDS011;47474;48.824;9.384;2023-06-24T10:16:38;3.83;;;3.00;;
13785;SDS011;47474;48.824;9.384;2023-06-24T10:19:04;3.58;;;3.25;;
13785;SDS011;47474;48.824;9.384;2023-06-24T10:21:43;4.70;;;3.63;;
13785;SDS011;47474;48.824;9.384;2023-06-24T10:24:10;3.72;;;3.25;;
13785;SDS011;47474;48.824;9.384;2023-06-24T10:26:39;3.50;;;3.22;;
13785;SDS011;47474;48.824;9.384;2023-06-24T10:29:13;3.65;;;3.35;;
13785;SDS011;47474;48.824;9.384;2023-06-24T10:31:54;4.80;;;3.17;;
13785;SDS011;47474;48.824;9.384;2023-06-24T10:34:27;3.20;;;2.90;;
13785;SDS011;47474;48.824;9.384;2023-06-24T10:36:54;3.05;;;2.75;;
13785;SDS011;47474;48.824;9.384;2023-06-24T10:45:19;3.30;;;3.00;;
13785;SDS011;47474;48.824;9.384;2023-06-24T10:47:46;3.97;;;3.58;;
13785;SDS011;47474;48.824;9.384;2023-06-24T10:50:15;4.47;;;3.20;;
13785;SDS011;47474;48.824;9.384;2023-06-24T10:52:43;3.58;;;3.28;;
13785;SDS011;47474;48.824;9.384;2023-06-24T10:55:11;3.17;;;2.88;;
13785;SDS011;47474;48.824;9.384;2023-06-24T10:57:39;3.75;;;2.80;;
13785;SDS011;47474;48.824;9.384;2023-06-24T11:00:06;3.38;;;3.08;;
13785;SDS011;47474;48.824;9.384;2023-06-24T11:02:35;3.20;;;3.00;;
13785;SDS011;47474;48.824;9.384;2023-06-24T11:05:02;2.85;;;2.65;;
13785;SDS011;47474;48.824;9.384;2023-06-24T11:07:30;3.10;;;2.90;;
13785;SDS011;47474;48.824;9.384;2023-06-24T11:10:00;3.20;;;2.85;;
13785;SDS011;47474;48.824;9.384;2023-06-24T11:12:29;4.10;;;3.13;;
13785;SDS011;47474;48.824;9.384;2023-06-24T11:14:56;3.03;;;2.78;;
13785;SDS011;47474;48.824;9.384;2023-06-24T11:17:23;3.65;;;3.35;;
13785;SDS011;47474;48.824;9.384;2023-06-24T11:19:53;2.95;;;2.75;;
13785;SDS011;47474;48.824;9.384;2023-06-24T11:22:19;2.72;;;2.53;;
13785;SDS011;47474;48.824;9.384;2023-06-24T11:24:46;2.80;;;2.60;;
13785;SDS011;47474;48.824;9.384;2023-06-24T11:27:13;3.00;;;2.80;;
13785;SDS011;47474;48.824;9.384;2023-06-24T11:29:39;3.28;;;2.97;;
13785;SDS011;47474;48.824;9.384;2023-06-24T11:32:07;3.55;;;3.25;;
13785;SDS011;47474;48.824;9.384;2023-06-24T11:34:34;3.83;;;3.38;;
13785;SDS011;47474;48.824;9.384;2023-06-24T11:37:10;3.15;;;2.85;;
13785;SDS011;47474;48.824;9.384;2023-06-24T11:39:37;3.50;;;2.92;;
13785;SDS011;47474;48.824;9.384;2023-06-24T11:42:05;2.78;;;2.58;;
13785;SDS011;47474;48.824;9.384;2023-06-24T11:44:32;4.47;;;3.05;;
13785;SDS011;47474;48.824;9.384;2023-06-24T11:47:03;3.55;;;2.88;;
13785;SDS011;47474;48.824;9.384;2023-06-24T11:49:30;3.35;;;3.05;;
13785;SDS011;47474;48.824;9.384;2023-06-24T11:51:57;2.90;;;2.70;;
13785;SDS011;47474;48.824;9.384;2023-06-24T11:54:25;3.38;;;3.00;;
13785;SDS011;47474;48.824;9.384;2023-06-24T11:56:51;3.20;;;3.00;;
13785;SDS011;47474;48.824;9.384;2023-06-24T11:59:19;2.90;;;2.67;;
13785;SDS011;47474;48.824;9.384;2023-06-24T12:01:53;3.03;;;2.70;;
13785;SDS011;47474;48.824;9.384;2023-06-24T12:04:20;3.30;;;3.00;;
13785;SDS011;47474;48.824;9.384;2023-06-24T12:06:47;3.30;;;2.90;;
13785;SDS011;47474;48.824;9.384;2023-06-24T12:09:13;3.42;;;3.13;;
13785;SDS011;47474;48.824;9.384;2023-06-24T12:11:42;3.00;;;2.80;;
13785;SDS011;47474;48.824;9.384;2023-06-24T12:14:09;3.40;;;3.10;;
13785;SDS011;47474;48.824;9.384;2023-06-24T12:16:35;2.70;;;2.50;;
13785;SDS011;47474;48.824;9.384;2023-06-24T12:19:02;3.00;;;2.72;;
13785;SDS011;47474;48.824;9.384;2023-06-24T12:21:29;3.13;;;2.92;;
13785;SDS011;47474;48.824;9.384;2023-06-24T12:23:55;3.30;;;3.00;;
13785;SDS011;47474;48.824;9.384;2023-06-24T12:26:22;3.20;;;3.00;;
13785;SDS011;47474;48.824;9.384;2023-06-24T12:28:50;3.33;;;3.03;;
13785;SDS011;47474;48.824;9.384;2023-06-24T12:31:20;3.63;;;3.28;;
13785;SDS011;47474;48.824;9.384;2023-06-24T12:33:47;3.60;;;3.30;;
13785;SDS011;47474;48.824;9.384;2023-06-24T12:36:13;7.00;;;2.80;;
13785;SDS011;47474;48.824;9.384;2023-06-24T12:38:40;3.28;;;3.00;;
13785;SDS011;47474;48.824;9.384;2023-06-24T12:41:06;3.45;;;3.15;;
13785;SDS011;47474;48.824;9.384;2023-06-24T12:43:33;3.25;;;3.05;;
13785;SDS011;47474;48.824;9.384;2023-06-24T12:46:01;3.45;;;3.20;;
13785;SDS011;47474;48.824;9.384;2023-06-24T12:48:28;4.53;;;2.58;;
13785;SDS011;47474;48.824;9.384;2023-06-24T12:50:54;3.60;;;3.30;;
13785;SDS011;47474;48.824;9.384;2023-06-24T12:53:21;3.33;;;3.03;;
13785;SDS011;47474;48.824;9.384;2023-06-24T12:55:48;3.08;;;2.78;;
13785;SDS011;47474;48.824;9.384;2023-06-24T12:58:18;3.50;;;3.10;;
13785;SDS011;47474;48.824;9.384;2023-06-24T13:00:45;2.92;;;2.72;;
13785;SDS011;47474;48.824;9.384;2023-06-24T13:03:13;3.20;;;3.00;;
13785;SDS011;47474;48.824;9.384;2023-06-24T13:05:39;3.67;;;3.30;;
13785;SDS011;47474;48.824;9.384;2023-06-24T13:08:06;3.17;;;2.88;;
13785;SDS011;47474;48.824;9.384;2023-06-24T13:10:32;3.50;;;3.20;;
13785;SDS011;47474;48.824;9.384;2023-06-24T13:12:59;3.30;;;3.00;;
13785;SDS011;47474;48.824;9.384;2023-06-24T13:15:26;3.50;;;3.20;;
13785;SDS011;47474;48.824;9.384;2023-06-24T13:17:52;4.80;;;3.38;;
13785;SDS011;47474;48.824;9.384;2023-06-24T13:20:20;3.03;;;2.72;;
13785;SDS011;47474;48.824;9.384;2023-06-24T13:22:47;3.40;;;3.10;;
13785;SDS011;47474;48.824;9.384;2023-06-24T13:25:14;3.40;;;3.10;;
13785;SDS011;47474;48.824;9.384;2023-06-24T13:27:40;4.68;;;2.80;;
13785;SDS011;47474;48.824;9.384;2023-06-24T13:30:07;3.13;;;2.83;;
13785;SDS011;47474;48.824;9.384;2023-06-24T13:32:34;3.33;;;3.08;;
13785;SDS011;47474;48.824;9.384;2023-06-24T13:35:01;3.17;;;2.88;;
13785;SDS011;47474;48.824;9.384;2023-06-24T13:37:29;3.22;;;2.97;;
13785;SDS011;47474;48.824;9.384;2023-06-24T13:39:55;3.45;;;3.15;;
13785;SDS011;47474;48.824;9.384;2023-06-24T13:42:22;3.30;;;3.10;;
13785;SDS011;47474;48.824;9.384;2023-06-24T13:44:50;2.97;;;2.78;;
13785;SDS011;47474;48.824;9.384;2023-06-24T13:47:17;3.15;;;2.85;;
13785;SDS011;47474;48.824;9.384;2023-06-24T13:49:43;3.42;;;3.08;;
13785;SDS011;47474;48.824;9.384;2023-06-24T13:52:10;3.38;;;3.08;;
13785;SDS011;47474;48.824;9.384;2023-06-24T13:54:38;3.22;;;2.92;;
13785;SDS011;47474;48.824;9.384;2023-06-24T13:57:04;3.90;;;3.60;;
13785;SDS011;47474;48.824;9.384;2023-06-24T13:59:31;3.80;;;3.13;;
13785;SDS011;47474;48.824;9.384;2023-06-24T14:01:57;2.83;;;2.63;;
13785;SDS011;47474;48.824;9.384;2023-06-24T14:04:24;3.40;;;3.10;;
13785;SDS011;47474;48.824;9.384;2023-06-24T14:06:51;3.88;;;3.58;;
13785;SDS011;47474;48.824;9.384;2023-06-24T14:09:18;3.25;;;2.80;;
13785;SDS011;47474;48.824;9.384;2023-06-24T14:11:46;3.72;;;3.03;;
13785;SDS011;47474;48.824;9.384;2023-06-24T14:14:13;3.35;;;3.05;;
13785;SDS011;47474;48.824;9.384;2023-06-24T14:16:39;3.55;;;3.25;;
13785;SDS011;47474;48.824;9.384;2023-06-24T14:19:06;3.70;;;2.65;;
13785;SDS011;47474;48.824;9.384;2023-06-24T14:21:32;2.90;;;2.70;;
13785;SDS011;47474;48.824;9.384;2023-06-24T14:24:02;3.28;;;2.92;;
13785;SDS011;47474;48.824;9.384;2023-06-24T14:26:29;3.33;;;3.03;;
13785;SDS011;47474;48.824;9.384;2023-06-24T14:28:57;3.40;;;3.10;;
13785;SDS011;47474;48.824;9.384;2023-06-24T14:31:23;2.90;;;2.60;;
13785;SDS011;47474;48.824;9.384;2023-06-24T14:33:50;3.17;;;2.88;;
13785;SDS011;47474;48.824;9.384;2023-06-24T14:36:17;3.60;;;3.30;;
13785;SDS011;47474;48.824;9.384;2023-06-24T14:38:43;3.20;;;2.90;;
13785;SDS011;47474;48.824;9.384;2023-06-24T14:41:10;3.13;;;2.92;;
13785;SDS011;47474;48.824;9.384;2023-06-24T14:43:36;3.10;;;2.80;;
13785;SDS011;47474;48.824;9.384;2023-06-24T14:46:04;3.30;;;3.00;;
13785;SDS011;47474;48.824;9.384;2023-06-24T14:48:31;3.35;;;3.05;;
13785;SDS011;47474;48.824;9.384;2023-06-24T14:50:57;3.20;;;2.90;;
13785;SDS011;47474;48.824;9.384;2023-06-24T14:53:24;3.13;;;2.78;;
13785;SDS011;47474;48.824;9.384;2023-06-24T14:55:50;3.03;;;2.72;;
13785;SDS011;47474;48.824;9.384;2023-06-24T14:58:17;3.55;;;3.25;;
13785;SDS011;47474;48.824;9.384;2023-06-24T15:00:44;3.20;;;2.90;;
13785;SDS011;47474;48.824;9.384;2023-06-24T15:03:12;3.70;;;3.40;;
13785;SDS011;47474;48.824;9.384;2023-06-24T15:05:38;2.88;;;2.67;;
13785;SDS011;47474;48.824;9.384;2023-06-24T15:08:05;4.72;;;3.10;;
13785;SDS011;47474;48.824;9.384;2023-06-24T15:10:31;3.03;;;2.83;;
13785;SDS011;47474;48.824;9.384;2023-06-24T15:12:58;2.80;;;2.60;;
13785;SDS011;47474;48.824;9.384;2023-06-24T15:15:25;3.00;;;2.70;;
13785;SDS011;47474;48.824;9.384;2023-06-24T15:17:51;3.20;;;2.90;;